sensor_id;sensor_type;location;lat;lon;timestamp;P1;durP1;ratioP1;P2;durP2;ratioP2
22205;SDS011;11272;50.104;8.754;2022-09-20T00:02:16;4.27;;;1.30;;
22205;SDS011;11272;50.104;8.754;2022-09-20T00:04:41;8.70;;;2.00;;
22205;SDS011;11272;50.104;8.754;2022-09-20T00:07:07;5.27;;;1.63;;
22205;SDS011;11272;50.104;8.754;2022-09-20T00:09:34;3.47;;;1.43;;
22205;SDS011;11272;50.104;8.754;2022-09-20T00:12:02;5.07;;;1.53;;
22205;SDS011;11272;50.104;8.754;2022-09-20T00:14:28;5.97;;;1.43;;
22205;SDS011;11272;50.104;8.754;2022-09-20T00:16:53;6.60;;;1.50;;
22205;SDS011;11272;50.104;8.754;2022-09-20T00:19:19;3.80;;;1.53;;
22205;SDS011;11272;50.104;8.754;2022-09-20T00:21:46;5.23;;;1.90;;
22205;SDS011;11272;50.104;8.754;2022-09-20T00:24:12;7.27;;;2.10;;
22205;SDS011;11272;50.104;8.754;2022-09-20T00:26:37;5.97;;;2.17;;
22205;SDS011;11272;50.104;8.754;2022-09-20T00:29:03;9.87;;;2.43;;
22205;SDS011;11272;50.104;8.754;2022-09-20T00:31:29;11.53;;;2.00;;
22205;SDS011;11272;50.104;8.754;2022-09-20T00:33:56;8.47;;;2.10;;
22205;SDS011;11272;50.104;8.754;2022-09-20T00:36:41;7.07;;;1.80;;
22205;SDS011;11272;50.104;8.754;2022-09-20T00:39:08;8.33;;;2.03;;
22205;SDS011;11272;50.104;8.754;2022-09-20T00:41:35;4.23;;;1.80;;
22205;SDS011;11272;50.104;8.754;2022-09-20T00:44:01;4.43;;;1.50;;
22205;SDS011;11272;50.104;8.754;2022-09-20T00:46:38;5.70;;;1.70;;
22205;SDS011;11272;50.104;8.754;2022-09-20T00:49:15;7.03;;;1.67;;
22205;SDS011;11272;50.104;8.754;2022-09-20T00:51:46;3.23;;;1.60;;
22205;SDS011;11272;50.104;8.754;2022-09-20T00:54:16;6.47;;;1.70;;
22205;SDS011;11272;50.104;8.754;2022-09-20T00:56:44;8.47;;;1.90;;
22205;SDS011;11272;50.104;8.754;2022-09-20T01:01:45;8.87;;;2.00;;
22205;SDS011;11272;50.104;8.754;2022-09-20T01:04:13;7.87;;;2.13;;
22205;SDS011;11272;50.104;8.754;2022-09-20T01:06:41;7.07;;;2.10;;
22205;SDS011;11272;50.104;8.754;2022-09-20T01:09:09;7.43;;;2.00;;
22205;SDS011;11272;50.104;8.754;2022-09-20T01:11:34;7.90;;;2.00;;
22205;SDS011;11272;50.104;8.754;2022-09-20T01:14:01;15.47;;;2.23;;
22205;SDS011;11272;50.104;8.754;2022-09-20T01:16:26;6.53;;;2.10;;
22205;SDS011;11272;50.104;8.754;2022-09-20T01:18:59;6.50;;;2.30;;
22205;SDS011;11272;50.104;8.754;2022-09-20T01:21:30;6.17;;;2.07;;
22205;SDS011;11272;50.104;8.754;2022-09-20T01:29:26;4.23;;;1.90;;
22205;SDS011;11272;50.104;8.754;2022-09-20T01:31:56;9.43;;;2.50;;
22205;SDS011;11272;50.104;8.754;2022-09-20T01:34:27;5.80;;;2.30;;
22205;SDS011;11272;50.104;8.754;2022-09-20T01:36:59;10.27;;;2.23;;
22205;SDS011;11272;50.104;8.754;2022-09-20T01:39:48;5.93;;;2.07;;
22205;SDS011;11272;50.104;8.754;2022-09-20T01:42:28;4.57;;;2.23;;
22205;SDS011;11272;50.104;8.754;2022-09-20T01:45:21;3.73;;;2.03;;
22205;SDS011;11272;50.104;8.754;2022-09-20T01:50:33;5.30;;;2.60;;
22205;SDS011;11272;50.104;8.754;2022-09-20T01:56:30;11.63;;;2.80;;
22205;SDS011;11272;50.104;8.754;2022-09-20T01:59:14;7.70;;;2.50;;
22205;SDS011;11272;50.104;8.754;2022-09-20T02:04:33;5.80;;;2.60;;
22205;SDS011;11272;50.104;8.754;2022-09-20T02:13:09;9.17;;;2.70;;
22205;SDS011;11272;50.104;8.754;2022-09-20T02:27:18;6.57;;;2.83;;
22205;SDS011;11272;50.104;8.754;2022-09-20T02:30:12;10.93;;;3.27;;
22205;SDS011;11272;50.104;8.754;2022-09-20T02:39:09;7.80;;;2.50;;
22205;SDS011;11272;50.104;8.754;2022-09-20T02:41:58;7.10;;;2.70;;
22205;SDS011;11272;50.104;8.754;2022-09-20T02:47:06;7.23;;;3.00;;
22205;SDS011;11272;50.104;8.754;2022-09-20T02:52:28;11.40;;;3.10;;
22205;SDS011;11272;50.104;8.754;2022-09-20T02:55:09;7.27;;;2.90;;
22205;SDS011;11272;50.104;8.754;2022-09-20T03:00:33;5.50;;;2.70;;
22205;SDS011;11272;50.104;8.754;2022-09-20T03:03:12;10.67;;;3.07;;
22205;SDS011;11272;50.104;8.754;2022-09-20T03:13:45;11.40;;;3.20;;
22205;SDS011;11272;50.104;8.754;2022-09-20T03:16:39;14.43;;;3.20;;
22205;SDS011;11272;50.104;8.754;2022-09-20T03:22:27;17.80;;;3.47;;
22205;SDS011;11272;50.104;8.754;2022-09-20T03:25:38;18.63;;;3.40;;
22205;SDS011;11272;50.104;8.754;2022-09-20T03:31:10;12.57;;;3.40;;
22205;SDS011;11272;50.104;8.754;2022-09-20T03:42:20;12.20;;;3.33;;
22205;SDS011;11272;50.104;8.754;2022-09-20T03:50:08;14.73;;;3.53;;
22205;SDS011;11272;50.104;8.754;2022-09-20T03:55:13;10.90;;;3.83;;
22205;SDS011;11272;50.104;8.754;2022-09-20T03:58:04;11.03;;;3.67;;
22205;SDS011;11272;50.104;8.754;2022-09-20T04:19:47;22.90;;;3.70;;
22205;SDS011;11272;50.104;8.754;2022-09-20T04:22:18;13.73;;;3.70;;
22205;SDS011;11272;50.104;8.754;2022-09-20T04:24:54;14.27;;;3.80;;
22205;SDS011;11272;50.104;8.754;2022-09-20T04:30:03;15.80;;;3.73;;
22205;SDS011;11272;50.104;8.754;2022-09-20T04:32:45;14.03;;;3.50;;
22205;SDS011;11272;50.104;8.754;2022-09-20T04:35:33;10.67;;;3.80;;
22205;SDS011;11272;50.104;8.754;2022-09-20T04:38:21;19.90;;;4.03;;
22205;SDS011;11272;50.104;8.754;2022-09-20T04:40:57;12.20;;;3.57;;
22205;SDS011;11272;50.104;8.754;2022-09-20T04:43:54;12.60;;;4.07;;
22205;SDS011;11272;50.104;8.754;2022-09-20T04:52:40;9.27;;;3.17;;
22205;SDS011;11272;50.104;8.754;2022-09-20T05:29:50;12.90;;;4.23;;
22205;SDS011;11272;50.104;8.754;2022-09-20T05:35:18;16.77;;;4.80;;
22205;SDS011;11272;50.104;8.754;2022-09-20T05:43:49;13.40;;;4.97;;
22205;SDS011;11272;50.104;8.754;2022-09-20T05:46:39;14.40;;;4.73;;
22205;SDS011;11272;50.104;8.754;2022-09-20T05:49:15;10.53;;;5.10;;
22205;SDS011;11272;50.104;8.754;2022-09-20T06:05:32;16.03;;;4.80;;
22205;SDS011;11272;50.104;8.754;2022-09-20T06:16:30;20.43;;;5.63;;
22205;SDS011;11272;50.104;8.754;2022-09-20T06:19:10;15.73;;;5.77;;
22205;SDS011;11272;50.104;8.754;2022-09-20T06:21:53;15.20;;;5.40;;
22205;SDS011;11272;50.104;8.754;2022-09-20T06:24:36;16.13;;;5.60;;
22205;SDS011;11272;50.104;8.754;2022-09-20T06:27:10;16.23;;;5.00;;
22205;SDS011;11272;50.104;8.754;2022-09-20T06:29:40;16.90;;;6.17;;
22205;SDS011;11272;50.104;8.754;2022-09-20T06:32:14;17.10;;;5.73;;
22205;SDS011;11272;50.104;8.754;2022-09-20T06:34:41;13.43;;;5.37;;
22205;SDS011;11272;50.104;8.754;2022-09-20T06:37:27;16.57;;;6.17;;
22205;SDS011;11272;50.104;8.754;2022-09-20T06:43:22;16.33;;;5.43;;
22205;SDS011;11272;50.104;8.754;2022-09-20T06:45:47;13.47;;;6.27;;
22205;SDS011;11272;50.104;8.754;2022-09-20T06:48:13;15.57;;;6.20;;
22205;SDS011;11272;50.104;8.754;2022-09-20T06:50:40;19.33;;;5.90;;
22205;SDS011;11272;50.104;8.754;2022-09-20T06:53:13;14.27;;;5.13;;
22205;SDS011;11272;50.104;8.754;2022-09-20T06:55:41;13.43;;;6.07;;
22205;SDS011;11272;50.104;8.754;2022-09-20T06:58:09;17.33;;;6.17;;
22205;SDS011;11272;50.104;8.754;2022-09-20T07:00:35;15.57;;;6.13;;
22205;SDS011;11272;50.104;8.754;2022-09-20T07:03:01;14.90;;;6.47;;
22205;SDS011;11272;50.104;8.754;2022-09-20T07:05:26;11.67;;;6.27;;
22205;SDS011;11272;50.104;8.754;2022-09-20T07:07:55;15.63;;;5.73;;
22205;SDS011;11272;50.104;8.754;2022-09-20T07:10:24;13.73;;;6.60;;
22205;SDS011;11272;50.104;8.754;2022-09-20T07:13:01;15.53;;;5.63;;
22205;SDS011;11272;50.104;8.754;2022-09-20T07:15:27;13.23;;;6.63;;
22205;SDS011;11272;50.104;8.754;2022-09-20T07:17:53;15.97;;;5.77;;
22205;SDS011;11272;50.104;8.754;2022-09-20T07:20:19;10.87;;;5.70;;
22205;SDS011;11272;50.104;8.754;2022-09-20T07:22:46;14.90;;;6.20;;
22205;SDS011;11272;50.104;8.754;2022-09-20T07:25:12;14.70;;;6.37;;
22205;SDS011;11272;50.104;8.754;2022-09-20T07:27:37;13.70;;;5.37;;
22205;SDS011;11272;50.104;8.754;2022-09-20T07:30:04;14.63;;;6.03;;
22205;SDS011;11272;50.104;8.754;2022-09-20T07:32:30;14.10;;;5.90;;
22205;SDS011;11272;50.104;8.754;2022-09-20T07:34:56;14.17;;;5.27;;
22205;SDS011;11272;50.104;8.754;2022-09-20T07:37:21;12.97;;;5.47;;
22205;SDS011;11272;50.104;8.754;2022-09-20T07:39:47;14.17;;;5.37;;
22205;SDS011;11272;50.104;8.754;2022-09-20T07:42:12;10.53;;;5.10;;
22205;SDS011;11272;50.104;8.754;2022-09-20T07:44:38;14.63;;;5.40;;
22205;SDS011;11272;50.104;8.754;2022-09-20T07:47:08;9.23;;;5.07;;
22205;SDS011;11272;50.104;8.754;2022-09-20T07:49:35;12.00;;;4.83;;
22205;SDS011;11272;50.104;8.754;2022-09-20T07:52:00;16.27;;;5.13;;
22205;SDS011;11272;50.104;8.754;2022-09-20T07:54:26;11.70;;;4.60;;
22205;SDS011;11272;50.104;8.754;2022-09-20T07:56:52;11.63;;;5.10;;
22205;SDS011;11272;50.104;8.754;2022-09-20T07:59:18;10.50;;;4.57;;
22205;SDS011;11272;50.104;8.754;2022-09-20T08:01:43;11.50;;;4.80;;
22205;SDS011;11272;50.104;8.754;2022-09-20T08:04:11;10.67;;;4.10;;
22205;SDS011;11272;50.104;8.754;2022-09-20T08:06:38;15.90;;;4.63;;
22205;SDS011;11272;50.104;8.754;2022-09-20T08:09:06;12.93;;;4.60;;
22205;SDS011;11272;50.104;8.754;2022-09-20T08:11:32;9.97;;;4.50;;
22205;SDS011;11272;50.104;8.754;2022-09-20T08:14:00;12.27;;;4.90;;
22205;SDS011;11272;50.104;8.754;2022-09-20T08:16:26;8.57;;;4.17;;
22205;SDS011;11272;50.104;8.754;2022-09-20T08:18:54;7.77;;;3.97;;
22205;SDS011;11272;50.104;8.754;2022-09-20T08:21:24;9.20;;;4.30;;
22205;SDS011;11272;50.104;8.754;2022-09-20T08:23:50;14.73;;;4.27;;
22205;SDS011;11272;50.104;8.754;2022-09-20T08:26:19;9.27;;;4.00;;
22205;SDS011;11272;50.104;8.754;2022-09-20T08:28:50;8.03;;;3.80;;
22205;SDS011;11272;50.104;8.754;2022-09-20T08:31:18;12.33;;;4.23;;
22205;SDS011;11272;50.104;8.754;2022-09-20T08:33:45;7.80;;;3.70;;
22205;SDS011;11272;50.104;8.754;2022-09-20T08:36:13;13.50;;;4.03;;
22205;SDS011;11272;50.104;8.754;2022-09-20T08:38:39;10.77;;;3.27;;
22205;SDS011;11272;50.104;8.754;2022-09-20T08:41:10;8.30;;;3.57;;
22205;SDS011;11272;50.104;8.754;2022-09-20T08:43:38;5.93;;;2.73;;
22205;SDS011;11272;50.104;8.754;2022-09-20T08:46:12;6.47;;;3.23;;
22205;SDS011;11272;50.104;8.754;2022-09-20T08:48:41;9.07;;;3.47;;
22205;SDS011;11272;50.104;8.754;2022-09-20T08:51:11;12.53;;;3.60;;
22205;SDS011;11272;50.104;8.754;2022-09-20T08:53:45;6.13;;;3.07;;
22205;SDS011;11272;50.104;8.754;2022-09-20T08:56:12;7.07;;;3.20;;
22205;SDS011;11272;50.104;8.754;2022-09-20T08:58:38;9.03;;;2.57;;
22205;SDS011;11272;50.104;8.754;2022-09-20T09:01:04;9.47;;;2.83;;
22205;SDS011;11272;50.104;8.754;2022-09-20T09:03:31;4.63;;;2.13;;
22205;SDS011;11272;50.104;8.754;2022-09-20T09:05:58;10.67;;;2.30;;
22205;SDS011;11272;50.104;8.754;2022-09-20T09:08:28;7.93;;;2.30;;
22205;SDS011;11272;50.104;8.754;2022-09-20T09:11:01;9.33;;;2.57;;
22205;SDS011;11272;50.104;8.754;2022-09-20T09:13:36;7.57;;;2.33;;
22205;SDS011;11272;50.104;8.754;2022-09-20T09:16:14;5.83;;;2.60;;
22205;SDS011;11272;50.104;8.754;2022-09-20T09:18:42;6.03;;;2.47;;
22205;SDS011;11272;50.104;8.754;2022-09-20T09:21:22;9.87;;;2.97;;
22205;SDS011;11272;50.104;8.754;2022-09-20T09:24:11;7.00;;;2.43;;
22205;SDS011;11272;50.104;8.754;2022-09-20T09:26:41;7.87;;;2.63;;
22205;SDS011;11272;50.104;8.754;2022-09-20T09:31:38;6.90;;;2.60;;
22205;SDS011;11272;50.104;8.754;2022-09-20T09:34:04;10.23;;;2.70;;
22205;SDS011;11272;50.104;8.754;2022-09-20T09:36:46;7.77;;;3.07;;
22205;SDS011;11272;50.104;8.754;2022-09-20T09:41:53;10.47;;;2.30;;
22205;SDS011;11272;50.104;8.754;2022-09-20T09:44:26;6.97;;;2.37;;
22205;SDS011;11272;50.104;8.754;2022-09-20T09:46:54;10.10;;;2.20;;
22205;SDS011;11272;50.104;8.754;2022-09-20T09:49:21;7.93;;;2.53;;
22205;SDS011;11272;50.104;8.754;2022-09-20T09:52:05;7.17;;;1.97;;
22205;SDS011;11272;50.104;8.754;2022-09-20T09:59:55;4.47;;;1.43;;
22205;SDS011;11272;50.104;8.754;2022-09-20T10:05:20;8.83;;;1.73;;
22205;SDS011;11272;50.104;8.754;2022-09-20T10:08:07;3.17;;;1.47;;
22205;SDS011;11272;50.104;8.754;2022-09-20T10:10:42;6.67;;;1.87;;
22205;SDS011;11272;50.104;8.754;2022-09-20T10:13:33;5.43;;;1.50;;
22205;SDS011;11272;50.104;8.754;2022-09-20T10:16:20;6.60;;;1.50;;
22205;SDS011;11272;50.104;8.754;2022-09-20T10:19:18;7.70;;;2.10;;
22205;SDS011;11272;50.104;8.754;2022-09-20T10:25:20;3.50;;;1.20;;
22205;SDS011;11272;50.104;8.754;2022-09-20T10:39:09;3.05;;;1.40;;
22205;SDS011;11272;50.104;8.754;2022-09-20T10:41:50;6.25;;;1.30;;
22205;SDS011;11272;50.104;8.754;2022-09-20T10:44:40;3.53;;;1.35;;
22205;SDS011;11272;50.104;8.754;2022-09-20T10:47:30;5.30;;;1.67;;
22205;SDS011;11272;50.104;8.754;2022-09-20T10:55:21;8.95;;;1.80;;
22205;SDS011;11272;50.104;8.754;2022-09-20T10:57:59;4.65;;;1.30;;
22205;SDS011;11272;50.104;8.754;2022-09-20T11:03:46;9.55;;;1.70;;
22205;SDS011;11272;50.104;8.754;2022-09-20T11:09:04;7.87;;;1.70;;
22205;SDS011;11272;50.104;8.754;2022-09-20T11:11:38;3.23;;;1.53;;
22205;SDS011;11272;50.104;8.754;2022-09-20T11:14:14;5.00;;;1.60;;
22205;SDS011;11272;50.104;8.754;2022-09-20T11:16:48;3.73;;;1.60;;
22205;SDS011;11272;50.104;8.754;2022-09-20T11:19:31;4.23;;;1.30;;
22205;SDS011;11272;50.104;8.754;2022-09-20T11:25:14;4.23;;;1.70;;
22205;SDS011;11272;50.104;8.754;2022-09-20T11:27:42;1.57;;;1.10;;
22205;SDS011;11272;50.104;8.754;2022-09-20T11:30:16;7.20;;;1.40;;
22205;SDS011;11272;50.104;8.754;2022-09-20T11:32:52;5.13;;;1.43;;
22205;SDS011;11272;50.104;8.754;2022-09-20T11:35:47;7.37;;;1.80;;
22205;SDS011;11272;50.104;8.754;2022-09-20T11:38:17;3.30;;;1.10;;
22205;SDS011;11272;50.104;8.754;2022-09-20T11:40:50;5.87;;;1.50;;
22205;SDS011;11272;50.104;8.754;2022-09-20T11:43:20;5.20;;;1.70;;
22205;SDS011;11272;50.104;8.754;2022-09-20T11:45:50;4.87;;;1.50;;
22205;SDS011;11272;50.104;8.754;2022-09-20T11:48:24;9.17;;;1.83;;
22205;SDS011;11272;50.104;8.754;2022-09-20T11:56:19;4.53;;;1.63;;
22205;SDS011;11272;50.104;8.754;2022-09-20T11:58:49;6.50;;;2.00;;
22205;SDS011;11272;50.104;8.754;2022-09-20T12:01:24;9.00;;;1.97;;
22205;SDS011;11272;50.104;8.754;2022-09-20T12:03:54;7.80;;;1.87;;
22205;SDS011;11272;50.104;8.754;2022-09-20T12:06:24;5.73;;;1.30;;
22205;SDS011;11272;50.104;8.754;2022-09-20T12:08:57;4.70;;;1.90;;
22205;SDS011;11272;50.104;8.754;2022-09-20T12:11:27;4.93;;;1.57;;
22205;SDS011;11272;50.104;8.754;2022-09-20T12:14:03;3.50;;;1.80;;
22205;SDS011;11272;50.104;8.754;2022-09-20T12:16:48;4.93;;;1.77;;
22205;SDS011;11272;50.104;8.754;2022-09-20T12:19:36;3.67;;;2.10;;
22205;SDS011;11272;50.104;8.754;2022-09-20T12:24:29;3.40;;;1.40;;
22205;SDS011;11272;50.104;8.754;2022-09-20T12:26:59;5.43;;;1.73;;
22205;SDS011;11272;50.104;8.754;2022-09-20T12:31:53;5.20;;;1.53;;
22205;SDS011;11272;50.104;8.754;2022-09-20T12:39:16;3.83;;;1.20;;
22205;SDS011;11272;50.104;8.754;2022-09-20T12:49:34;6.80;;;1.50;;
22205;SDS011;11272;50.104;8.754;2022-09-20T12:55:10;5.30;;;1.40;;
22205;SDS011;11272;50.104;8.754;2022-09-20T13:00:27;2.77;;;1.00;;
22205;SDS011;11272;50.104;8.754;2022-09-20T13:03:00;3.67;;;1.30;;
22205;SDS011;11272;50.104;8.754;2022-09-20T13:05:37;5.27;;;1.33;;
22205;SDS011;11272;50.104;8.754;2022-09-20T13:08:15;1.77;;;1.10;;
22205;SDS011;11272;50.104;8.754;2022-09-20T13:22:49;5.10;;;1.37;;
22205;SDS011;11272;50.104;8.754;2022-09-20T13:25:09;4.17;;;1.43;;
22205;SDS011;11272;50.104;8.754;2022-09-20T13:27:39;3.77;;;1.53;;
22205;SDS011;11272;50.104;8.754;2022-09-20T13:30:18;3.17;;;0.90;;
22205;SDS011;11272;50.104;8.754;2022-09-20T13:32:46;5.07;;;1.57;;
22205;SDS011;11272;50.104;8.754;2022-09-20T13:37:52;6.80;;;1.60;;
22205;SDS011;11272;50.104;8.754;2022-09-20T13:40:33;5.73;;;1.53;;
22205;SDS011;11272;50.104;8.754;2022-09-20T13:43:01;4.37;;;1.30;;
22205;SDS011;11272;50.104;8.754;2022-09-20T13:45:40;3.97;;;1.33;;
22205;SDS011;11272;50.104;8.754;2022-09-20T13:48:07;6.03;;;1.33;;
22205;SDS011;11272;50.104;8.754;2022-09-20T13:50:34;4.77;;;1.40;;
22205;SDS011;11272;50.104;8.754;2022-09-20T13:53:00;2.17;;;1.40;;
22205;SDS011;11272;50.104;8.754;2022-09-20T13:55:38;3.40;;;1.40;;
22205;SDS011;11272;50.104;8.754;2022-09-20T14:01:02;4.63;;;1.30;;
22205;SDS011;11272;50.104;8.754;2022-09-20T14:03:31;3.80;;;1.33;;
22205;SDS011;11272;50.104;8.754;2022-09-20T14:05:59;1.87;;;1.20;;
22205;SDS011;11272;50.104;8.754;2022-09-20T14:08:45;4.93;;;1.17;;
22205;SDS011;11272;50.104;8.754;2022-09-20T14:11:24;3.30;;;1.60;;
22205;SDS011;11272;50.104;8.754;2022-09-20T14:13:53;3.27;;;1.37;;
22205;SDS011;11272;50.104;8.754;2022-09-20T14:16:21;2.77;;;1.20;;
22205;SDS011;11272;50.104;8.754;2022-09-20T14:18:52;2.60;;;1.40;;
22205;SDS011;11272;50.104;8.754;2022-09-20T14:21:20;3.57;;;1.60;;
22205;SDS011;11272;50.104;8.754;2022-09-20T14:28:41;5.70;;;1.50;;
22205;SDS011;11272;50.104;8.754;2022-09-20T14:31:14;3.00;;;1.60;;
22205;SDS011;11272;50.104;8.754;2022-09-20T14:33:47;5.17;;;1.47;;
22205;SDS011;11272;50.104;8.754;2022-09-20T14:36:23;4.53;;;1.60;;
22205;SDS011;11272;50.104;8.754;2022-09-20T14:38:52;2.53;;;1.43;;
22205;SDS011;11272;50.104;8.754;2022-09-20T14:41:25;6.53;;;1.60;;
22205;SDS011;11272;50.104;8.754;2022-09-20T14:43:55;4.20;;;1.80;;
22205;SDS011;11272;50.104;8.754;2022-09-20T14:46:27;2.83;;;1.50;;
22205;SDS011;11272;50.104;8.754;2022-09-20T14:49:17;4.80;;;1.70;;
22205;SDS011;11272;50.104;8.754;2022-09-20T14:51:43;5.40;;;1.63;;
22205;SDS011;11272;50.104;8.754;2022-09-20T14:56:35;3.60;;;1.50;;
22205;SDS011;11272;50.104;8.754;2022-09-20T15:01:35;2.23;;;1.77;;
22205;SDS011;11272;50.104;8.754;2022-09-20T15:04:05;3.47;;;1.47;;
22205;SDS011;11272;50.104;8.754;2022-09-20T15:06:43;3.73;;;1.53;;
22205;SDS011;11272;50.104;8.754;2022-09-20T15:09:09;3.90;;;1.50;;
22205;SDS011;11272;50.104;8.754;2022-09-20T15:11:37;2.90;;;1.50;;
22205;SDS011;11272;50.104;8.754;2022-09-20T15:14:03;4.47;;;1.50;;
22205;SDS011;11272;50.104;8.754;2022-09-20T15:16:28;3.50;;;1.47;;
22205;SDS011;11272;50.104;8.754;2022-09-20T15:18:54;7.70;;;1.73;;
22205;SDS011;11272;50.104;8.754;2022-09-20T15:21:20;2.50;;;1.60;;
22205;SDS011;11272;50.104;8.754;2022-09-20T15:23:46;4.73;;;1.33;;
22205;SDS011;11272;50.104;8.754;2022-09-20T15:26:11;4.70;;;1.17;;
22205;SDS011;11272;50.104;8.754;2022-09-20T15:28:39;2.40;;;1.20;;
22205;SDS011;11272;50.104;8.754;2022-09-20T15:31:04;2.10;;;1.13;;
22205;SDS011;11272;50.104;8.754;2022-09-20T15:33:30;3.27;;;1.30;;
22205;SDS011;11272;50.104;8.754;2022-09-20T15:35:57;3.00;;;1.20;;
22205;SDS011;11272;50.104;8.754;2022-09-20T15:38:23;2.53;;;1.17;;
22205;SDS011;11272;50.104;8.754;2022-09-20T15:40:58;3.33;;;1.10;;
22205;SDS011;11272;50.104;8.754;2022-09-20T15:43:30;3.33;;;1.40;;
22205;SDS011;11272;50.104;8.754;2022-09-20T15:45:58;3.70;;;1.17;;
22205;SDS011;11272;50.104;8.754;2022-09-20T15:48:26;2.70;;;1.00;;
22205;SDS011;11272;50.104;8.754;2022-09-20T15:53:29;3.50;;;1.10;;
22205;SDS011;11272;50.104;8.754;2022-09-20T15:56:19;1.67;;;0.80;;
22205;SDS011;11272;50.104;8.754;2022-09-20T15:58:47;2.87;;;1.10;;
22205;SDS011;11272;50.104;8.754;2022-09-20T16:01:16;5.07;;;1.00;;
22205;SDS011;11272;50.104;8.754;2022-09-20T16:03:44;4.87;;;1.00;;
22205;SDS011;11272;50.104;8.754;2022-09-20T16:06:10;3.20;;;1.10;;
22205;SDS011;11272;50.104;8.754;2022-09-20T16:08:41;4.07;;;0.80;;
22205;SDS011;11272;50.104;8.754;2022-09-20T16:11:09;5.43;;;1.40;;
22205;SDS011;11272;50.104;8.754;2022-09-20T16:13:37;2.03;;;1.07;;
22205;SDS011;11272;50.104;8.754;2022-09-20T16:16:04;5.83;;;0.97;;
22205;SDS011;11272;50.104;8.754;2022-09-20T16:18:31;8.67;;;1.10;;
22205;SDS011;11272;50.104;8.754;2022-09-20T16:21:17;3.30;;;1.00;;
22205;SDS011;11272;50.104;8.754;2022-09-20T16:23:47;3.03;;;1.00;;
22205;SDS011;11272;50.104;8.754;2022-09-20T16:26:15;3.97;;;0.90;;
22205;SDS011;11272;50.104;8.754;2022-09-20T16:28:42;3.90;;;0.90;;
22205;SDS011;11272;50.104;8.754;2022-09-20T16:33:53;1.63;;;0.90;;
22205;SDS011;11272;50.104;8.754;2022-09-20T16:36:19;1.67;;;0.90;;
22205;SDS011;11272;50.104;8.754;2022-09-20T16:38:48;3.80;;;0.90;;
22205;SDS011;11272;50.104;8.754;2022-09-20T16:41:14;3.70;;;1.10;;
22205;SDS011;11272;50.104;8.754;2022-09-20T16:43:39;3.97;;;0.83;;
22205;SDS011;11272;50.104;8.754;2022-09-20T16:46:05;2.40;;;0.90;;
22205;SDS011;11272;50.104;8.754;2022-09-20T16:48:30;5.03;;;1.20;;
22205;SDS011;11272;50.104;8.754;2022-09-20T16:50:57;3.93;;;1.47;;
22205;SDS011;11272;50.104;8.754;2022-09-20T16:53:27;4.03;;;1.20;;
22205;SDS011;11272;50.104;8.754;2022-09-20T16:55:53;3.20;;;1.30;;
22205;SDS011;11272;50.104;8.754;2022-09-20T16:58:28;5.30;;;1.40;;
22205;SDS011;11272;50.104;8.754;2022-09-20T17:01:01;5.87;;;1.87;;
22205;SDS011;11272;50.104;8.754;2022-09-20T17:03:31;4.90;;;2.13;;
22205;SDS011;11272;50.104;8.754;2022-09-20T17:06:01;3.03;;;1.33;;
22205;SDS011;11272;50.104;8.754;2022-09-20T17:08:29;5.10;;;1.53;;
22205;SDS011;11272;50.104;8.754;2022-09-20T17:10:58;3.97;;;1.23;;
22205;SDS011;11272;50.104;8.754;2022-09-20T17:13:25;5.77;;;1.93;;
22205;SDS011;11272;50.104;8.754;2022-09-20T17:16:03;4.87;;;1.70;;
22205;SDS011;11272;50.104;8.754;2022-09-20T17:18:39;6.03;;;1.80;;
22205;SDS011;11272;50.104;8.754;2022-09-20T17:23:35;5.43;;;2.20;;
22205;SDS011;11272;50.104;8.754;2022-09-20T17:26:04;7.53;;;2.10;;
22205;SDS011;11272;50.104;8.754;2022-09-20T17:28:34;2.73;;;1.67;;
22205;SDS011;11272;50.104;8.754;2022-09-20T17:31:04;4.27;;;1.33;;
22205;SDS011;11272;50.104;8.754;2022-09-20T17:33:32;3.70;;;1.60;;
22205;SDS011;11272;50.104;8.754;2022-09-20T17:35:58;4.63;;;1.40;;
22205;SDS011;11272;50.104;8.754;2022-09-20T17:38:25;3.40;;;1.70;;
22205;SDS011;11272;50.104;8.754;2022-09-20T17:41:04;7.87;;;1.83;;
22205;SDS011;11272;50.104;8.754;2022-09-20T17:43:34;4.53;;;2.00;;
22205;SDS011;11272;50.104;8.754;2022-09-20T17:46:05;6.90;;;2.50;;
22205;SDS011;11272;50.104;8.754;2022-09-20T17:48:42;3.37;;;1.40;;
22205;SDS011;11272;50.104;8.754;2022-09-20T17:51:18;4.10;;;1.80;;
22205;SDS011;11272;50.104;8.754;2022-09-20T17:53:44;5.17;;;1.77;;
22205;SDS011;11272;50.104;8.754;2022-09-20T17:56:11;2.57;;;1.20;;
22205;SDS011;11272;50.104;8.754;2022-09-20T17:58:37;2.10;;;1.40;;
22205;SDS011;11272;50.104;8.754;2022-09-20T18:01:04;2.03;;;1.27;;
22205;SDS011;11272;50.104;8.754;2022-09-20T18:03:39;2.07;;;1.60;;
22205;SDS011;11272;50.104;8.754;2022-09-20T18:09:08;2.87;;;1.20;;
22205;SDS011;11272;50.104;8.754;2022-09-20T18:11:37;3.87;;;1.70;;
22205;SDS011;11272;50.104;8.754;2022-09-20T18:14:05;6.70;;;1.80;;
22205;SDS011;11272;50.104;8.754;2022-09-20T18:16:32;2.90;;;1.57;;
22205;SDS011;11272;50.104;8.754;2022-09-20T18:19:01;5.50;;;1.77;;
22205;SDS011;11272;50.104;8.754;2022-09-20T18:21:27;3.53;;;1.90;;
22205;SDS011;11272;50.104;8.754;2022-09-20T18:23:54;5.97;;;1.50;;
22205;SDS011;11272;50.104;8.754;2022-09-20T18:26:25;5.33;;;1.47;;
22205;SDS011;11272;50.104;8.754;2022-09-20T18:31:18;3.13;;;1.53;;
22205;SDS011;11272;50.104;8.754;2022-09-20T18:33:52;2.53;;;1.53;;
22205;SDS011;11272;50.104;8.754;2022-09-20T18:36:18;1.90;;;1.30;;
22205;SDS011;11272;50.104;8.754;2022-09-20T18:38:44;4.90;;;1.60;;
22205;SDS011;11272;50.104;8.754;2022-09-20T18:41:10;6.00;;;1.70;;
22205;SDS011;11272;50.104;8.754;2022-09-20T18:43:38;7.90;;;1.90;;
22205;SDS011;11272;50.104;8.754;2022-09-20T18:46:07;5.23;;;1.40;;
22205;SDS011;11272;50.104;8.754;2022-09-20T18:48:34;4.30;;;1.73;;
22205;SDS011;11272;50.104;8.754;2022-09-20T18:51:03;6.33;;;1.80;;
22205;SDS011;11272;50.104;8.754;2022-09-20T18:53:30;3.10;;;1.40;;
22205;SDS011;11272;50.104;8.754;2022-09-20T18:58:55;3.87;;;1.70;;
22205;SDS011;11272;50.104;8.754;2022-09-20T19:07:30;5.30;;;2.20;;
22205;SDS011;11272;50.104;8.754;2022-09-20T19:18:30;4.80;;;2.10;;
22205;SDS011;11272;50.104;8.754;2022-09-20T19:26:23;5.03;;;2.47;;
22205;SDS011;11272;50.104;8.754;2022-09-20T19:28:49;5.90;;;2.50;;
22205;SDS011;11272;50.104;8.754;2022-09-20T19:31:20;4.83;;;2.43;;
22205;SDS011;11272;50.104;8.754;2022-09-20T19:33:48;7.37;;;2.70;;
22205;SDS011;11272;50.104;8.754;2022-09-20T19:36:16;8.57;;;2.80;;
22205;SDS011;11272;50.104;8.754;2022-09-20T19:38:44;6.03;;;2.93;;
22205;SDS011;11272;50.104;8.754;2022-09-20T19:41:20;7.07;;;3.50;;
22205;SDS011;11272;50.104;8.754;2022-09-20T19:47:03;5.83;;;3.60;;
22205;SDS011;11272;50.104;8.754;2022-09-20T19:52:53;7.87;;;3.17;;
22205;SDS011;11272;50.104;8.754;2022-09-20T19:55:23;5.50;;;2.80;;
22205;SDS011;11272;50.104;8.754;2022-09-20T19:57:49;6.37;;;2.77;;
22205;SDS011;11272;50.104;8.754;2022-09-20T20:00:17;6.93;;;2.70;;
22205;SDS011;11272;50.104;8.754;2022-09-20T20:02:45;7.73;;;3.00;;
22205;SDS011;11272;50.104;8.754;2022-09-20T20:05:15;6.20;;;2.60;;
22205;SDS011;11272;50.104;8.754;2022-09-20T20:13:08;9.47;;;3.13;;
22205;SDS011;11272;50.104;8.754;2022-09-20T20:16:03;9.77;;;3.73;;
22205;SDS011;11272;50.104;8.754;2022-09-20T20:21:18;6.97;;;3.60;;
22205;SDS011;11272;50.104;8.754;2022-09-20T20:24:56;9.07;;;3.40;;
22205;SDS011;11272;50.104;8.754;2022-09-20T20:27:05;8.50;;;3.00;;
22205;SDS011;11272;50.104;8.754;2022-09-20T20:29:30;6.17;;;3.30;;
22205;SDS011;11272;50.104;8.754;2022-09-20T20:31:56;7.13;;;3.63;;
22205;SDS011;11272;50.104;8.754;2022-09-20T20:34:21;7.57;;;3.07;;
22205;SDS011;11272;50.104;8.754;2022-09-20T20:36:46;6.90;;;3.23;;
22205;SDS011;11272;50.104;8.754;2022-09-20T20:39:12;5.83;;;3.17;;